KSWO/SWO METAR and TAF weather

Enter ICAO airport designator
Station Type Date Time Source
KSWO METAR 2021/10/20 01:53 UTC NOAA

KSWO 200153Z 16012KT 10SM CLR 21/12 A2995


Station Type Date Time Source
KSWO Decoded METAR 2021/10/20 01:53 UTC NOAA

STILLWATER REGIONAL AIRPORT, OK, United States (KSWO) 36-10N 97-05W 290M
Oct 19, 2021 - 09:53 PM EDT / 2021.10.20 0153 UTC
Wind: from the SSE (160 degrees) at 14 MPH (12 KT):0
Visibility: 10 mile(s):0
Sky conditions: clear
Temperature: 69 F (21 C)
Dew Point: 53 F (12 C)
Relative Humidity: 56%
Pressure (altimeter): 29.95 in. Hg (1014 hPa)
ob: KSWO 200153Z 16012KT 10SM CLR 21/12 A2995
cycle: 2

Station Type Date Time Source
KSWO TAF 2021/10/20 06:22 UTC NOAA

TAF KSWO 200520Z 2006/2106 16012KT P6SM SKC WS020/20040KT
FM201200 20007KT P6SM SKC
FM201400 30010G15KT P6SM FEW030 FEW250
TEMPO 2014/2016 BKN030
FM201600 32010KT P6SM SKC

Example: see airport list